createdAt,value
2023-05-21T00:01:48.651Z,101165.63
2023-05-21T00:04:16.176Z,101160.34
2023-05-21T00:06:43.573Z,101156.88
2023-05-21T00:09:13.127Z,101159.50
2023-05-21T00:11:41.958Z,101153.38
2023-05-21T00:14:09.152Z,101155.13
2023-05-21T00:16:36.458Z,101152.50
2023-05-21T00:19:05.293Z,101150.78
2023-05-21T00:21:33.169Z,101149.00
2023-05-21T00:24:08.740Z,101143.75
2023-05-21T00:26:36.305Z,101137.63
2023-05-21T00:29:07.421Z,101137.63
2023-05-21T00:31:35.524Z,101131.50
2023-05-21T00:34:02.945Z,101132.38
2023-05-21T00:36:31.056Z,101138.50
2023-05-21T00:38:58.481Z,101135.88
2023-05-21T00:41:26.760Z,101133.28
2023-05-21T00:43:54.336Z,101128.00
2023-05-21T00:46:22.969Z,101136.78
2023-05-21T00:48:51.213Z,101135.03
2023-05-21T00:51:18.935Z,101123.63
2023-05-21T00:53:49.984Z,101122.75
2023-05-21T00:56:20.346Z,101123.63
2023-05-21T00:58:48.160Z,101121.88
2023-05-21T01:01:16.377Z,101123.66
2023-05-21T01:03:43.819Z,101129.78
2023-05-21T01:06:14.428Z,101118.38
2023-05-21T01:08:42.316Z,101124.50
2023-05-21T01:11:17.589Z,101113.13
2023-05-21T01:13:49.696Z,101116.63
2023-05-21T01:16:18.062Z,101111.38
2023-05-21T01:18:46.994Z,101108.72
2023-05-21T01:21:20.048Z,101106.97
2023-05-21T01:23:47.464Z,101103.50
2023-05-21T01:26:14.681Z,101109.63
2023-05-21T01:28:42.427Z,101102.63
2023-05-21T01:31:26.815Z,101109.63
2023-05-21T01:33:59.587Z,101104.34
2023-05-21T01:36:34.952Z,101108.72
2023-05-21T01:39:09.557Z,101105.19
2023-05-21T01:41:42.110Z,101099.09
2023-05-21T01:44:11.450Z,101101.69
2023-05-21T01:46:39.992Z,101103.47
2023-05-21T01:49:09.173Z,101099.06
2023-05-21T01:51:39.750Z,101103.44
2023-05-21T01:54:07.117Z,101096.44
2023-05-21T01:56:34.458Z,101099.06
2023-05-21T01:59:01.725Z,101099.06
2023-05-21T02:01:31.767Z,101095.59
2023-05-21T02:03:59.193Z,101094.72
2023-05-21T02:06:28.869Z,101091.19
2023-05-21T02:08:56.762Z,101086.81
2023-05-21T02:11:24.089Z,101081.56
2023-05-21T02:13:51.908Z,101081.56
2023-05-21T02:16:23.179Z,101074.56
2023-05-21T02:18:57.616Z,101075.44
2023-05-21T02:21:25.006Z,101076.31
2023-05-21T02:23:52.170Z,101059.69
2023-05-21T02:26:19.375Z,101061.41
2023-05-21T02:28:46.468Z,101060.56
2023-05-21T02:31:13.833Z,101056.16
2023-05-21T02:33:42.973Z,101064.91
2023-05-21T02:36:13.491Z,101062.31
2023-05-21T02:38:44.425Z,101064.06
2023-05-21T02:41:13.579Z,101061.41
2023-05-21T02:43:40.733Z,101065.78
2023-05-21T02:46:08.205Z,101057.03
2023-05-21T02:48:35.995Z,101061.41
2023-05-21T02:51:04.983Z,101064.91
2023-05-21T02:53:32.264Z,101062.28
2023-05-21T02:55:59.317Z,101057.91
2023-05-21T02:58:26.450Z,101056.16
2023-05-21T03:01:02.897Z,101051.75
2023-05-21T03:03:30.353Z,101048.25
2023-05-21T03:05:58.811Z,101045.63
2023-05-21T03:08:26.710Z,101038.63
2023-05-21T03:10:54.064Z,101043.00
2023-05-21T03:13:21.897Z,101054.34
2023-05-21T03:15:49.381Z,101045.59
2023-05-21T03:18:17.039Z,101047.34
2023-05-21T03:20:47.057Z,101040.38
2023-05-21T03:23:17.270Z,101037.72
2023-05-21T03:25:47.404Z,101035.13
2023-05-21T03:28:15.066Z,101046.47
2023-05-21T03:30:49.916Z,101039.50
2023-05-21T03:33:37.419Z,101040.38
2023-05-21T03:36:17.874Z,101046.50
2023-05-21T03:38:44.992Z,101038.59
2023-05-21T03:41:13.647Z,101039.47
2023-05-21T03:43:43.137Z,101042.97
2023-05-21T03:46:10.516Z,101036.78
2023-05-21T03:48:58.653Z,101042.03
2023-05-21T03:51:31.903Z,101046.41
2023-05-21T03:54:00.159Z,101042.03
2023-05-21T03:56:27.724Z,101045.53
2023-05-21T03:58:55.056Z,101049.03
2023-05-21T04:01:22.314Z,101051.63
2023-05-21T04:03:52.195Z,101059.47
2023-05-21T04:06:23.062Z,101051.56
2023-05-21T04:08:50.771Z,101054.19
2023-05-21T04:11:19.461Z,101062.06
2023-05-21T04:13:48.428Z,101066.41
2023-05-21T04:16:19.506Z,101064.59
2023-05-21T04:18:47.547Z,101063.72
2023-05-21T04:21:19.058Z,101073.38
2023-05-21T04:23:46.741Z,101065.47
2023-05-21T04:26:38.710Z,101063.72
2023-05-21T04:29:06.177Z,101061.09
2023-05-21T04:31:33.471Z,101060.22
2023-05-21T04:34:02.653Z,101061.09
2023-05-21T04:36:30.374Z,101068.09
2023-05-21T04:38:57.565Z,101064.59
2023-05-21T04:41:24.630Z,101059.34
2023-05-21T04:43:55.405Z,101061.09
2023-05-21T04:46:27.099Z,101066.34
2023-05-21T04:48:58.184Z,101060.22
2023-05-21T04:51:26.943Z,101060.22
2023-05-21T04:53:54.441Z,101054.97
2023-05-21T04:56:27.003Z,101056.66
2023-05-21T04:58:54.653Z,101058.41
2023-05-21T05:01:27.407Z,101055.78
2023-05-21T05:03:54.678Z,101057.53
2023-05-21T05:06:22.521Z,101058.47
2023-05-21T05:08:50.140Z,101069.81
2023-05-21T05:11:25.604Z,101074.22
2023-05-21T05:13:53.510Z,101070.72
2023-05-21T05:16:25.574Z,101072.47
2023-05-21T05:18:59.268Z,101073.34
2023-05-21T05:21:26.813Z,101074.22
2023-05-21T05:23:54.308Z,101070.72
2023-05-21T05:26:27.077Z,101074.22
2023-05-21T05:28:55.325Z,101069.84
2023-05-21T05:31:24.027Z,101071.63
2023-05-21T05:33:53.001Z,101067.22
2023-05-21T05:36:22.897Z,101073.31
2023-05-21T05:38:50.192Z,101074.22
2023-05-21T05:41:17.603Z,101069.84
2023-05-21T05:43:44.740Z,101062.88
2023-05-21T05:46:12.039Z,101076.00
2023-05-21T05:48:39.741Z,101067.31
2023-05-21T05:51:06.794Z,101069.06
2023-05-21T05:53:34.192Z,101070.75
2023-05-21T05:56:01.322Z,101065.56
2023-05-21T05:58:31.365Z,101062.06
2023-05-21T06:01:13.764Z,101067.31
2023-05-21T06:03:41.511Z,101072.56
2023-05-21T06:06:17.328Z,101080.44
2023-05-21T06:08:45.017Z,101069.84
2023-05-21T06:11:13.090Z,101075.06
2023-05-21T06:13:40.449Z,101082.06
2023-05-21T06:16:10.222Z,101083.81
2023-05-21T06:18:38.795Z,101082.03
2023-05-21T06:21:06.204Z,101082.88
2023-05-21T06:23:33.639Z,101087.25
2023-05-21T06:26:00.949Z,101085.50
2023-05-21T06:28:28.293Z,101088.13
2023-05-21T06:30:55.700Z,101090.75
2023-05-21T06:33:28.041Z,101075.00
2023-05-21T06:35:56.302Z,101079.34
2023-05-21T06:38:24.053Z,101077.63
2023-05-21T06:40:51.234Z,101089.84
2023-05-21T06:43:34.623Z,101083.69
2023-05-21T06:46:20.187Z,101097.72
2023-05-21T06:48:47.424Z,101091.63
2023-05-21T06:51:16.525Z,101086.44
2023-05-21T06:53:43.935Z,101092.56
2023-05-21T06:56:11.025Z,101099.59
2023-05-21T06:58:47.048Z,101101.38
2023-05-21T07:01:16.747Z,101090.03
2023-05-21T07:03:47.105Z,101092.69
2023-05-21T07:06:23.499Z,101097.09
2023-05-21T07:08:51.024Z,101103.22
2023-05-21T07:11:18.764Z,101102.38
2023-05-21T07:13:46.360Z,101095.38
2023-05-21T07:16:15.700Z,101100.69
2023-05-21T07:18:42.910Z,101108.56
2023-05-21T07:21:10.499Z,101101.63
2023-05-21T07:23:37.889Z,101108.63
2023-05-21T07:26:05.750Z,101103.41
2023-05-21T07:28:35.260Z,101103.41
2023-05-21T07:31:05.173Z,101106.94
2023-05-21T07:33:40.988Z,101107.84
2023-05-21T07:36:10.187Z,101109.56
2023-05-21T07:38:38.490Z,101108.69
2023-05-21T07:41:06.003Z,101113.97
2023-05-21T07:43:33.324Z,101113.09
2023-05-21T07:46:02.108Z,101120.16
2023-05-21T07:48:30.330Z,101115.75
2023-05-21T07:51:01.362Z,101114.88
2023-05-21T07:53:34.480Z,101110.50
2023-05-21T07:56:05.021Z,101105.22
2023-05-21T07:58:35.336Z,101109.59
2023-05-21T08:01:03.116Z,101110.47
2023-05-21T08:03:31.755Z,101115.72
2023-05-21T08:05:59.286Z,101117.44
2023-05-21T08:08:29.440Z,101116.53
2023-05-21T08:11:06.172Z,101114.75
2023-05-21T08:13:34.787Z,101113.84
2023-05-21T08:16:03.871Z,101120.91
2023-05-21T08:18:33.799Z,101119.97
2023-05-21T08:21:01.783Z,101128.69
2023-05-21T08:23:29.422Z,101127.81
2023-05-21T08:26:02.574Z,101123.41
2023-05-21T08:28:31.382Z,101124.25
2023-05-21T08:30:59.573Z,101125.09
2023-05-21T08:33:27.665Z,101121.47
2023-05-21T08:35:54.907Z,101121.50
2023-05-21T08:38:32.585Z,101114.22
2023-05-21T08:41:19.529Z,101121.13
2023-05-21T08:43:50.851Z,101119.88
2023-05-21T08:46:21.293Z,101120.97
2023-05-21T08:48:50.718Z,101130.50
2023-05-21T08:51:18.298Z,101118.16
2023-05-21T08:53:49.940Z,101124.84
2023-05-21T08:56:19.105Z,101122.56
2023-05-21T08:58:49.938Z,101134.50
2023-05-21T09:01:22.384Z,101125.03
2023-05-21T09:04:01.960Z,101130.41
2023-05-21T09:06:36.782Z,101121.97
2023-05-21T09:09:11.627Z,101130.09
2023-05-21T09:11:44.077Z,101126.44
2023-05-21T09:14:12.655Z,101127.88
2023-05-21T09:17:02.565Z,101127.59
2023-05-21T09:19:32.538Z,101119.00
2023-05-21T09:22:06.997Z,101125.63
2023-05-21T09:24:36.279Z,101120.63
2023-05-21T09:27:07.991Z,101124.00
2023-05-21T09:29:36.339Z,101126.81
2023-05-21T09:32:08.027Z,101115.03
2023-05-21T09:34:38.550Z,101124.19
2023-05-21T09:37:16.354Z,101122.19
2023-05-21T09:39:44.369Z,101126.50
2023-05-21T09:42:11.724Z,101125.06
2023-05-21T09:44:39.004Z,101124.97
2023-05-21T09:47:06.351Z,101125.25
2023-05-21T09:49:37.193Z,101124.78
2023-05-21T09:52:05.476Z,101118.44
2023-05-21T09:54:35.616Z,101132.16
2023-05-21T09:57:03.417Z,101127.53
2023-05-21T09:59:38.643Z,101131.00
2023-05-21T10:02:27.064Z,101135.44
2023-05-21T10:04:57.819Z,101135.25
2023-05-21T10:07:29.190Z,101136.13
2023-05-21T10:09:58.144Z,101133.41
2023-05-21T10:12:26.029Z,101134.72
2023-05-21T10:15:03.755Z,101135.84
2023-05-21T10:17:31.633Z,101135.38
2023-05-21T10:20:00.219Z,101138.03
2023-05-21T10:22:28.467Z,101135.50
2023-05-21T10:24:57.733Z,101135.41
2023-05-21T10:27:25.045Z,101137.28
2023-05-21T10:29:57.473Z,101139.09
2023-05-21T10:32:26.905Z,101145.03
2023-05-21T10:34:58.666Z,101146.94
2023-05-21T10:37:27.784Z,101144.75
2023-05-21T10:39:59.064Z,101147.44
2023-05-21T10:42:46.520Z,101147.78
2023-05-21T10:45:21.912Z,101148.94
2023-05-21T10:48:16.810Z,101153.38
2023-05-21T10:51:09.033Z,101149.75
2023-05-21T10:54:13.605Z,101153.75
2023-05-21T10:56:54.585Z,101152.38
2023-05-21T10:59:42.714Z,101152.69
2023-05-21T11:02:13.208Z,101153.97
2023-05-21T11:04:43.531Z,101153.66
2023-05-21T11:07:12.476Z,101155.13
2023-05-21T11:09:42.515Z,101156.91
2023-05-21T11:12:10.312Z,101159.31
2023-05-21T11:14:43.276Z,101158.97
2023-05-21T11:17:17.101Z,101151.75
2023-05-21T11:19:53.522Z,101157.13
2023-05-21T11:22:20.944Z,101161.75
2023-05-21T11:24:50.535Z,101161.13
2023-05-21T11:27:43.013Z,101152.97
2023-05-21T11:30:17.729Z,101155.81
2023-05-21T11:33:14.208Z,101158.59
2023-05-21T11:35:50.203Z,101152.31
2023-05-21T11:38:18.292Z,101155.44
2023-05-21T11:40:55.726Z,101146.06
2023-05-21T11:43:23.045Z,101153.25
2023-05-21T11:45:55.676Z,101155.53
2023-05-21T11:48:28.417Z,101153.03
2023-05-21T11:50:57.703Z,101162.06
2023-05-21T11:53:33.540Z,101150.50
2023-05-21T11:56:04.971Z,101145.28
2023-05-21T11:58:32.608Z,101154.25
2023-05-21T12:00:59.752Z,101146.38
2023-05-21T12:03:27.449Z,101152.94
2023-05-21T12:05:54.935Z,101148.94
2023-05-21T12:08:25.822Z,101155.84
2023-05-21T12:11:02.020Z,101158.88
2023-05-21T12:13:29.561Z,101159.41
2023-05-21T12:15:59.194Z,101161.94
2023-05-21T12:18:27.066Z,101159.59
2023-05-21T12:20:59.737Z,101167.16
2023-05-21T12:23:27.102Z,101167.16
2023-05-21T12:25:54.468Z,101157.03
2023-05-21T12:28:22.697Z,101167.25
2023-05-21T12:30:49.956Z,101164.06
2023-05-21T12:33:20.621Z,101172.44
2023-05-21T12:35:51.409Z,101177.25
2023-05-21T12:38:18.701Z,101182.69
2023-05-21T12:40:46.091Z,101172.09
2023-05-21T12:43:13.705Z,101168.81
2023-05-21T12:45:41.400Z,101172.16
2023-05-21T12:48:09.091Z,101174.16
2023-05-21T12:50:43.826Z,101182.25
2023-05-21T12:53:16.494Z,101169.81
2023-05-21T12:55:44.093Z,101176.09
2023-05-21T12:58:14.095Z,101169.88
2023-05-21T13:00:43.607Z,101174.44
2023-05-21T13:03:14.633Z,101170.59
2023-05-21T13:05:43.441Z,101177.03
2023-05-21T13:08:17.327Z,101170.41
2023-05-21T13:10:47.637Z,101185.13
2023-05-21T13:13:14.942Z,101169.47
2023-05-21T13:15:42.370Z,101177.41
2023-05-21T13:18:09.682Z,101169.59
2023-05-21T13:20:37.220Z,101174.41
2023-05-21T13:23:06.720Z,101173.16
2023-05-21T13:25:38.195Z,101173.72
2023-05-21T13:28:13.445Z,101163.06
2023-05-21T13:30:40.860Z,101160.19
2023-05-21T13:33:12.307Z,101170.38
2023-05-21T13:35:39.659Z,101164.66
2023-05-21T13:38:09.195Z,101167.38
2023-05-21T13:40:38.858Z,101160.75
2023-05-21T13:43:09.099Z,101159.97
2023-05-21T13:45:36.397Z,101165.50
2023-05-21T13:48:03.537Z,101160.59
2023-05-21T13:50:30.942Z,101161.91
2023-05-21T13:53:02.453Z,101159.13
2023-05-21T13:55:29.772Z,101166.22
2023-05-21T13:57:56.951Z,101158.66
2023-05-21T14:00:26.616Z,101164.63
2023-05-21T14:02:57.371Z,101159.63
2023-05-21T14:05:27.014Z,101159.78
2023-05-21T14:07:56.914Z,101156.00
2023-05-21T14:10:24.218Z,101159.25
2023-05-21T14:12:51.783Z,101152.59
2023-05-21T14:15:19.361Z,101150.84
2023-05-21T14:17:50.200Z,101153.44
2023-05-21T14:20:24.761Z,101152.78
2023-05-21T14:22:52.430Z,101146.50
2023-05-21T14:25:20.291Z,101153.19
2023-05-21T14:27:47.908Z,101151.69
2023-05-21T14:30:19.102Z,101155.81
2023-05-21T14:32:47.940Z,101154.38
2023-05-21T14:35:21.371Z,101166.53
2023-05-21T14:37:52.466Z,101154.59
2023-05-21T14:40:26.176Z,101158.84
2023-05-21T14:42:54.208Z,101153.63
2023-05-21T14:45:22.664Z,101157.91
2023-05-21T14:47:54.271Z,101160.06
2023-05-21T14:50:22.279Z,101157.25
2023-05-21T14:52:50.354Z,101156.31
2023-05-21T14:55:22.703Z,101152.00
2023-05-21T14:57:55.819Z,101152.34
2023-05-21T15:00:24.067Z,101153.47
2023-05-21T15:02:53.029Z,101153.19
2023-05-21T15:05:23.277Z,101159.53
2023-05-21T15:07:51.138Z,101155.03
2023-05-21T15:10:23.589Z,101153.22
2023-05-21T15:12:51.990Z,101150.81
2023-05-21T15:15:23.134Z,101150.91
2023-05-21T15:17:51.577Z,101145.81
2023-05-21T15:20:23.348Z,101151.63
2023-05-21T15:22:59.033Z,101156.88
2023-05-21T15:25:36.794Z,101151.47
2023-05-21T15:28:05.197Z,101153.38
2023-05-21T15:30:33.448Z,101147.91
2023-05-21T15:33:04.119Z,101146.69
2023-05-21T15:35:31.828Z,101159.53
2023-05-21T15:37:59.655Z,101153.59
2023-05-21T15:40:27.728Z,101151.59
2023-05-21T15:42:56.775Z,101146.28
2023-05-21T15:45:25.882Z,101150.06
2023-05-21T15:47:54.008Z,101154.47
2023-05-21T15:50:24.496Z,101149.84
2023-05-21T15:53:04.358Z,101152.81
2023-05-21T15:55:35.740Z,101156.66
2023-05-21T15:58:04.485Z,101157.47
2023-05-21T16:00:31.887Z,101152.31
2023-05-21T16:02:59.784Z,101147.81
2023-05-21T16:05:27.531Z,101142.38
2023-05-21T16:07:55.960Z,101137.00
2023-05-21T16:10:25.470Z,101143.16
2023-05-21T16:12:53.590Z,101136.19
2023-05-21T16:15:24.662Z,101143.78
2023-05-21T16:17:51.888Z,101146.41
2023-05-21T16:20:21.985Z,101147.84
2023-05-21T16:22:49.809Z,101145.28
2023-05-21T16:25:20.031Z,101140.78
2023-05-21T16:27:48.368Z,101136.78
2023-05-21T16:30:19.139Z,101133.81
2023-05-21T16:32:46.381Z,101125.72
2023-05-21T16:35:13.818Z,101134.66
2023-05-21T16:37:41.388Z,101126.69
2023-05-21T16:40:09.556Z,101124.81
2023-05-21T16:42:36.863Z,101128.69
2023-05-21T16:45:07.944Z,101126.16
2023-05-21T16:47:40.434Z,101127.03
2023-05-21T16:50:10.954Z,101120.19
2023-05-21T16:52:43.309Z,101128.88
2023-05-21T16:58:00.290Z,101121.91
2023-05-21T17:00:31.475Z,101124.50
2023-05-21T17:03:08.796Z,101110.47
2023-05-21T17:05:36.587Z,101118.25
2023-05-21T17:08:04.399Z,101123.44
2023-05-21T17:10:36.822Z,101124.44
2023-05-21T17:13:21.464Z,101126.16
2023-05-21T17:15:55.121Z,101129.06
2023-05-21T17:18:23.626Z,101132.50
2023-05-21T17:20:56.464Z,101132.53
2023-05-21T17:23:26.258Z,101142.91
2023-05-21T17:25:56.723Z,101136.91
2023-05-21T17:28:27.367Z,101137.88
2023-05-21T17:30:54.859Z,101138.69
2023-05-21T17:33:22.845Z,101140.59
2023-05-21T17:35:53.416Z,101142.28
2023-05-21T17:38:21.345Z,101145.84
2023-05-21T17:40:50.928Z,101137.03
2023-05-21T17:43:21.160Z,101140.59
2023-05-21T17:45:48.692Z,101145.00
2023-05-21T17:48:18.114Z,101148.44
2023-05-21T17:50:48.656Z,101146.81
2023-05-21T17:53:19.389Z,101138.00
2023-05-21T17:55:48.214Z,101138.00
2023-05-21T17:58:15.933Z,101141.66
2023-05-21T18:00:43.306Z,101141.69
2023-05-21T18:03:13.307Z,101146.00
2023-05-21T18:05:40.697Z,101144.16
2023-05-21T18:08:10.989Z,101146.81
2023-05-21T18:10:45.665Z,101143.28
2023-05-21T18:13:13.134Z,101149.41
2023-05-21T18:15:41.230Z,101150.25
2023-05-21T18:18:20.635Z,101151.97
2023-05-21T18:20:53.216Z,101153.00
2023-05-21T18:23:21.081Z,101149.38
2023-05-21T18:25:50.900Z,101151.94
2023-05-21T18:28:20.745Z,101147.59
2023-05-21T18:30:48.607Z,101154.63
2023-05-21T18:33:17.181Z,101155.44
2023-05-21T18:35:44.897Z,101151.03
2023-05-21T18:38:16.026Z,101156.28
2023-05-21T18:40:46.179Z,101156.25
2023-05-21T18:43:17.348Z,101157.13
2023-05-21T18:45:45.674Z,101151.91
2023-05-21T18:48:13.514Z,101162.53
2023-05-21T18:50:41.726Z,101156.44
2023-05-21T18:53:09.526Z,101155.56
2023-05-21T18:55:37.057Z,101160.78
2023-05-21T18:58:07.934Z,101162.56
2023-05-21T19:00:39.926Z,101157.59
2023-05-21T19:03:07.477Z,101161.88
2023-05-21T19:05:34.953Z,101164.63
2023-05-21T19:08:02.528Z,101157.56
2023-05-21T19:10:30.934Z,101155.91
2023-05-21T19:12:58.254Z,101152.34
2023-05-21T19:15:25.411Z,101161.03
2023-05-21T19:17:52.661Z,101163.66
2023-05-21T19:20:27.398Z,101163.56
2023-05-21T19:22:56.026Z,101164.50
2023-05-21T19:25:25.217Z,101159.16
2023-05-21T19:27:53.690Z,101158.31
2023-05-21T19:30:21.574Z,101163.59
2023-05-21T19:32:49.094Z,101160.03
2023-05-21T19:35:25.866Z,101166.19
2023-05-21T19:38:04.862Z,101172.31
2023-05-21T19:40:39.751Z,101158.25
2023-05-21T19:43:10.499Z,101161.72
2023-05-21T19:45:45.212Z,101166.06
2023-05-21T19:48:15.693Z,101172.25
2023-05-21T19:50:48.982Z,101171.53
2023-05-21T19:53:20.671Z,101178.50
2023-05-21T19:56:06.941Z,101174.06
2023-05-21T19:58:39.516Z,101181.13
2023-05-21T20:01:08.918Z,101172.28
2023-05-21T20:03:40.207Z,101177.56
2023-05-21T20:06:29.533Z,101177.66
2023-05-21T20:08:57.606Z,101177.63
2023-05-21T20:11:27.920Z,101179.34
2023-05-21T20:13:58.417Z,101182.00
2023-05-21T20:16:26.977Z,101184.59
2023-05-21T20:19:05.903Z,101185.56
2023-05-21T20:21:34.289Z,101192.59
2023-05-21T20:24:04.727Z,101187.34
2023-05-21T20:26:35.603Z,101192.59
2023-05-21T20:29:12.088Z,101200.50
2023-05-21T20:31:43.046Z,101204.91
2023-05-21T20:34:12.748Z,101205.78
2023-05-21T20:36:56.352Z,101215.41
2023-05-21T20:39:33.781Z,101209.28
2023-05-21T20:42:02.609Z,101207.50
2023-05-21T20:44:30.228Z,101213.66
2023-05-21T20:47:01.956Z,101213.72
2023-05-21T20:49:35.875Z,101211.06
2023-05-21T20:52:09.234Z,101218.06
2023-05-21T20:54:37.676Z,101211.03
2023-05-21T20:57:06.354Z,101209.25
2023-05-21T20:59:42.136Z,101213.69
2023-05-21T21:02:14.451Z,101211.00
2023-05-21T21:04:42.488Z,101205.75
2023-05-21T21:07:13.232Z,101210.13
2023-05-21T21:09:41.048Z,101206.63
2023-05-21T21:12:24.797Z,101207.47
2023-05-21T21:14:54.264Z,101202.19
2023-05-21T21:17:35.497Z,101203.06
2023-05-21T21:20:03.116Z,101198.63
2023-05-21T21:22:34.239Z,101194.22
2023-05-21T21:25:03.786Z,101194.22
2023-05-21T21:27:33.464Z,101191.59
2023-05-21T21:30:03.728Z,101190.72
2023-05-21T21:32:33.170Z,101198.63
2023-05-21T21:35:00.628Z,101187.19
2023-05-21T21:37:30.728Z,101203.88
2023-05-21T21:40:01.022Z,101204.75
2023-05-21T21:42:28.306Z,101195.09
2023-05-21T21:44:55.785Z,101188.97
2023-05-21T21:47:28.197Z,101195.97
2023-05-21T21:49:56.495Z,101197.72
2023-05-21T21:52:29.327Z,101194.22
2023-05-21T21:54:59.316Z,101194.22
2023-05-21T21:57:30.341Z,101188.94
2023-05-21T22:00:03.446Z,101198.59
2023-05-21T22:02:34.926Z,101206.50
2023-05-21T22:05:02.695Z,101194.19
2023-05-21T22:07:37.483Z,101203.88
2023-05-21T22:10:06.036Z,101213.56
2023-05-21T22:12:38.533Z,101205.63
2023-05-21T22:15:11.934Z,101209.13
2023-05-21T22:17:41.479Z,101211.72
2023-05-21T22:20:10.729Z,101204.72
2023-05-21T22:22:41.310Z,101209.16
2023-05-21T22:25:13.070Z,101212.66
2023-05-21T22:27:41.138Z,101217.97
2023-05-21T22:30:12.026Z,101223.22
2023-05-21T22:32:41.519Z,101221.44
2023-05-21T22:35:10.098Z,101224.97
2023-05-21T22:37:37.684Z,101226.72
2023-05-21T22:40:13.592Z,101227.63
2023-05-21T22:42:46.708Z,101222.34
2023-05-21T22:45:16.777Z,101225.00
2023-05-21T22:47:44.040Z,101227.63
2023-05-21T22:50:14.229Z,101220.59
2023-05-21T22:52:44.603Z,101218.84
2023-05-21T22:55:16.728Z,101216.19
2023-05-21T22:57:47.359Z,101220.63
2023-05-21T23:00:21.278Z,101203.94
2023-05-21T23:02:53.983Z,101216.19
2023-05-21T23:05:22.150Z,101216.25
2023-05-21T23:07:50.514Z,101211.84
2023-05-21T23:10:23.482Z,101211.00
2023-05-21T23:12:50.826Z,101205.72
2023-05-21T23:15:19.295Z,101208.34
2023-05-21T23:17:48.575Z,101204.84
2023-05-21T23:20:15.999Z,101205.72
2023-05-21T23:22:43.526Z,101205.75
2023-05-21T23:25:10.896Z,101205.75
2023-05-21T23:27:38.033Z,101206.59
2023-05-21T23:30:05.903Z,101195.19
2023-05-21T23:32:33.172Z,101193.47
2023-05-21T23:35:00.371Z,101198.75
2023-05-21T23:37:30.016Z,101189.97
2023-05-21T23:39:57.302Z,101188.19
2023-05-21T23:42:27.484Z,101189.94
2023-05-21T23:44:57.747Z,101188.22
2023-05-21T23:47:25.605Z,101182.03
2023-05-21T23:49:53.138Z,101176.78
2023-05-21T23:52:26.964Z,101176.78
2023-05-21T23:54:58.195Z,101180.28
2023-05-21T23:57:28.432Z,101179.47
